Time;durP1;ratioP1;P1;durP2;ratioP2;P2;SDS_P1;SDS_P2;PMS_P1;PMS_P2;Temp;Humidity;BMP_temperature;BMP_pressure;BME280_temperature;BME280_humidity;BME280_pressure;Samples;Min_cycle;Max_cycle;Signal;HPM_P1;HPM_P2
2023/05/25 00:02:06;;;;;;;;;13.25;11.50;;;;;17.52;46.55;101516.06;5076787;27;45729;-82
2023/05/25 00:07:56;;;;;;;;;12.00;11.25;;;;;17.46;46.82;101513.94;5076723;28;45710;-83
2023/05/25 00:10:22;;;;;;;;;15.50;12.75;;;;;17.43;46.88;101508.09;5076344;27;45505;-82
2023/05/25 00:12:47;;;;;;;;;15.00;13.00;;;;;17.43;46.64;101506.28;5076138;28;46288;-83
2023/05/25 00:15:13;;;;;;;;;10.75;9.75;;;;;17.43;47.03;101505.44;5076383;27;45587;-83
2023/05/25 00:17:39;;;;;;;;;13.00;11.25;;;;;17.37;47.11;101506.78;5076177;27;45522;-81
2023/05/25 00:20:06;;;;;;;;;14.00;12.50;;;;;17.36;47.20;101505.09;5074497;28;48609;-81
2023/05/25 00:22:38;;;;;;;;;14.75;11.50;;;;;17.36;47.34;101504.25;5075885;27;46040;-82
2023/05/25 00:25:05;;;;;;;;;11.00;10.00;;;;;17.32;46.69;101503.69;5076210;27;45837;-81
2023/05/25 00:27:30;;;;;;;;;10.75;9.00;;;;;17.27;47.26;101497.13;5076501;27;45681;-82
2023/05/25 00:29:56;;;;;;;;;12.75;11.50;;;;;17.26;47.18;101506.03;5074552;28;47898;-83
2023/05/25 00:32:21;;;;;;;;;7.50;4.00;;;;;17.22;47.14;101500.13;5075577;28;46139;-81
2023/05/25 00:38:16;;;;;;;;;12.50;10.25;;;;;17.07;47.97;101496.97;5075656;28;45700;-83
2023/05/25 00:40:42;;;;;;;;;13.50;13.00;;;;;17.03;48.24;101494.72;5075599;27;45504;-83
2023/05/25 00:43:08;;;;;;;;;10.00;9.50;;;;;17.00;48.63;101501.13;5075407;27;45560;-83
2023/05/25 00:45:33;;;;;;;;;8.75;7.00;;;;;16.94;48.61;101506.94;5075235;28;45859;-81
2023/05/25 00:47:59;;;;;;;;;17.00;17.00;;;;;16.87;48.38;101497.81;5075678;27;45668;-83
2023/05/25 00:50:37;;;;;;;;;12.75;11.75;;;;;16.85;49.05;101507.66;5090812;27;48200;-83
2023/05/25 00:53:05;;;;;;;;;15.00;12.75;;;;;16.78;49.29;101501.22;5073296;28;47099;-82
2023/05/25 00:55:36;;;;;;;;;13.75;12.00;;;;;16.73;49.15;101506.06;5075616;27;45717;-80
2023/05/25 00:58:03;;;;;;;;;11.25;10.25;;;;;16.68;49.09;101501.13;5075528;27;45648;-83
2023/05/25 01:00:31;;;;;;;;;16.00;13.50;;;;;16.66;48.86;101508.38;5075329;27;46550;-80
2023/05/25 01:02:58;;;;;;;;;16.25;12.25;;;;;16.63;49.53;101511.25;5090465;27;48058;-81
2023/05/25 01:05:27;;;;;;;;;13.00;12.50;;;;;16.62;49.34;101500.81;5075366;27;45691;-79
2023/05/25 01:07:55;;;;;;;;;13.25;12.50;;;;;16.58;49.80;101512.56;5075519;27;45664;-80
2023/05/25 01:10:23;;;;;;;;;14.00;13.00;;;;;16.54;49.79;101503.19;5075202;27;45590;-81
2023/05/25 01:12:52;;;;;;;;;13.00;12.00;;;;;16.50;50.38;101497.31;5074960;27;46007;-84
2023/05/25 01:15:19;;;;;;;;;16.00;13.25;;;;;16.47;50.28;101491.41;5075252;27;45789;-83
2023/05/25 01:17:44;;;;;;;;;11.75;10.50;;;;;16.43;50.47;101493.50;5075178;27;45665;-82
2023/05/25 01:23:35;;;;;;;;;11.25;8.75;;;;;16.34;50.81;101491.59;5074960;28;45819;-82
2023/05/25 01:26:09;;;;;;;;;14.50;13.25;;;;;16.29;51.83;101496.44;5075200;28;45673;-82
2023/05/25 01:28:39;;;;;;;;;12.75;12.75;;;;;16.23;51.36;101495.13;5075005;27;45667;-81
2023/05/25 01:31:07;;;;;;;;;13.00;9.25;;;;;16.19;51.61;101498.13;5074715;28;46761;-81
2023/05/25 01:33:35;;;;;;;;;13.75;11.00;;;;;16.14;51.71;101495.03;5074905;27;46061;-81
2023/05/25 01:36:02;;;;;;;;;15.00;13.00;;;;;16.10;51.99;101491.75;5074742;27;45808;-82
2023/05/25 01:38:27;;;;;;;;;11.75;11.75;;;;;16.06;52.05;101505.34;5075014;27;45513;-81
2023/05/25 01:40:52;;;;;;;;;14.75;11.75;;;;;16.02;52.26;101502.13;5074569;27;45684;-81
2023/05/25 01:43:18;;;;;;;;;13.50;13.50;;;;;16.01;52.10;101507.53;5074783;28;46352;-82
2023/05/25 01:45:44;;;;;;;;;12.00;11.00;;;;;15.97;51.92;101512.22;5074862;27;45536;-82
2023/05/25 01:54:50;;;;;;;;;13.00;12.00;;;;;15.84;52.66;101516.78;5070560;28;46154;-82
2023/05/25 01:57:18;;;;;;;;;14.00;11.75;;;;;15.78;52.99;101517.25;5073459;28;45538;-82
2023/05/25 01:59:46;;;;;;;;;14.75;12.25;;;;;15.73;53.27;101514.13;5072919;28;45841;-82
2023/05/25 02:02:16;;;;;;;;;13.00;11.50;;;;;15.66;52.98;101512.91;5074107;27;46885;-82
2023/05/25 02:08:04;;;;;;;;;17.75;12.50;;;;;15.58;53.30;101510.06;5073967;28;46054;-82
2023/05/25 02:10:29;;;;;;;;;13.75;12.00;;;;;15.53;53.58;101519.19;5074473;28;45791;-82
2023/05/25 02:12:54;;;;;;;;;15.00;13.00;;;;;15.50;53.46;101521.16;5073928;27;46358;-82
2023/05/25 02:15:20;;;;;;;;;14.00;13.00;;;;;15.47;53.68;101522.25;5074348;28;45683;-82
2023/05/25 02:17:45;;;;;;;;;14.25;13.50;;;;;15.43;54.04;101515.53;5074195;28;45576;-82
2023/05/25 02:23:33;;;;;;;;;13.00;13.00;;;;;15.34;54.22;101524.16;5074110;28;45474;-82
2023/05/25 02:25:58;;;;;;;;;16.00;14.00;;;;;15.33;53.61;101525.09;5074184;27;45723;-81
2023/05/25 02:28:23;;;;;;;;;11.75;11.50;;;;;15.30;53.44;101524.50;5073991;28;45556;-82
2023/05/25 02:30:49;;;;;;;;;15.25;13.75;;;;;15.29;54.00;101522.81;5074080;28;45579;-82
2023/05/25 02:33:15;;;;;;;;;13.50;13.00;;;;;15.23;53.95;101524.13;5074322;27;45863;-81
2023/05/25 02:39:02;;;;;;;;;17.00;14.25;;;;;15.18;54.29;101534.19;5073921;28;45541;-83
2023/05/25 02:41:27;;;;;;;;;12.75;12.50;;;;;15.14;53.93;101543.31;5074415;28;45682;-83
2023/05/25 02:43:53;;;;;;;;;14.50;12.00;;;;;15.11;54.36;101544.34;5074335;27;45513;-83
2023/05/25 02:46:19;;;;;;;;;11.00;11.00;;;;;15.13;53.92;101547.72;5074656;28;46080;-84
2023/05/25 02:48:45;;;;;;;;;14.00;13.75;;;;;15.12;54.15;101546.03;5074415;27;45806;-82
2023/05/25 02:54:32;;;;;;;;;14.00;12.25;;;;;15.10;54.29;101552.41;5067943;28;46149;-84
2023/05/25 02:56:58;;;;;;;;;14.25;11.00;;;;;15.10;54.53;101547.13;5074028;28;45708;-83
2023/05/25 02:59:26;;;;;;;;;19.00;16.75;;;;;15.08;54.06;101543.75;5073951;27;45677;-84
2023/05/25 03:01:51;;;;;;;;;14.75;12.75;;;;;15.07;54.39;101549.97;5073998;27;45782;-84
2023/05/25 03:04:17;;;;;;;;;13.00;13.00;;;;;15.05;54.30;101546.63;5073993;28;45626;-83
2023/05/25 03:06:45;;;;;;;;;14.50;13.75;;;;;15.02;54.44;101546.84;5073703;28;45780;-83
2023/05/25 03:09:11;;;;;;;;;12.25;11.25;;;;;14.98;54.46;101548.03;5075999;28;45973;-83
2023/05/25 03:11:36;;;;;;;;;12.25;11.00;;;;;14.91;54.34;101545.00;5077096;28;45538;-84
2023/05/25 03:14:02;;;;;;;;;12.75;10.25;;;;;14.91;54.47;101557.34;5077313;27;45751;-85
2023/05/25 03:16:27;;;;;;;;;10.50;10.25;;;;;14.84;54.63;101551.72;5076967;28;45603;-82
2023/05/25 03:18:53;;;;;;;;;12.00;11.00;;;;;14.83;54.47;101552.66;5077241;28;45667;-83
2023/05/25 03:24:40;;;;;;;;;9.00;7.75;;;;;14.76;54.76;101556.69;5077805;28;46144;-83
2023/05/25 03:27:06;;;;;;;;;14.00;12.00;;;;;14.73;54.97;101562.22;5077950;28;45664;-82
2023/05/25 03:29:32;;;;;;;;;13.25;12.25;;;;;14.69;54.88;101568.66;5076684;28;45933;-84
2023/05/25 03:31:57;;;;;;;;;11.25;11.00;;;;;14.62;55.23;101560.38;5077901;28;45518;-83
2023/05/25 03:34:23;;;;;;;;;11.75;11.50;;;;;14.60;55.06;101570.16;5077651;27;46450;-82
2023/05/25 03:36:49;;;;;;;;;14.25;11.25;;;;;14.55;54.86;101567.03;5077333;27;45541;-83
2023/05/25 03:39:14;;;;;;;;;12.50;11.75;;;;;14.56;55.15;101579.25;5077574;27;45635;-83
2023/05/25 03:41:41;;;;;;;;;13.50;12.50;;;;;14.52;55.07;101575.13;5075586;28;45494;-83
2023/05/25 03:44:09;;;;;;;;;13.00;13.00;;;;;14.53;55.28;101584.75;5079680;27;46236;-82
2023/05/25 03:46:35;;;;;;;;;15.50;12.50;;;;;14.50;55.25;101582.34;5083358;27;47015;-80
2023/05/25 03:49:00;;;;;;;;;10.50;9.50;;;;;14.45;55.38;101581.81;5083377;27;45584;-80
2023/05/25 03:54:48;;;;;;;;;15.50;12.00;;;;;14.41;55.50;101590.91;5077086;28;45679;-84
2023/05/25 03:57:13;;;;;;;;;11.00;11.00;;;;;14.37;55.58;101592.06;5077991;27;46093;-83
2023/05/25 03:59:39;;;;;;;;;14.50;12.25;;;;;14.35;56.32;101591.31;5077663;27;45551;-82
2023/05/25 04:02:04;;;;;;;;;13.25;11.75;;;;;14.30;56.11;101588.16;5077000;28;45588;-82
2023/05/25 04:04:29;;;;;;;;;11.75;10.50;;;;;14.24;56.24;101580.69;5077454;28;45731;-82
2023/05/25 04:10:16;;;;;;;;;11.50;10.75;;;;;14.18;56.31;101584.59;5076453;28;45793;-82
2023/05/25 04:12:42;;;;;;;;;14.50;11.25;;;;;14.16;55.97;101581.22;5076677;27;45544;-83
2023/05/25 04:15:08;;;;;;;;;13.00;11.00;;;;;14.15;56.40;101583.94;5077224;27;45626;-82
2023/05/25 04:17:34;;;;;;;;;16.00;15.00;;;;;14.13;55.98;101578.81;5077907;28;46106;-83
2023/05/25 04:20:01;;;;;;;;;13.00;12.50;;;;;14.09;56.61;101587.84;5091979;27;45670;-83
2023/05/25 04:22:26;;;;;;;;;13.50;11.00;;;;;14.04;56.93;101568.91;5076305;27;45613;-83
2023/05/25 04:24:52;;;;;;;;;15.00;11.00;;;;;14.06;56.55;101580.19;5076437;27;45461;-84
2023/05/25 04:27:19;;;;;;;;;16.25;11.25;;;;;14.02;56.89;101572.59;5076339;28;45645;-84
2023/05/25 04:29:45;;;;;;;;;12.00;11.00;;;;;14.02;56.68;101577.88;5076610;27;45544;-83
2023/05/25 04:32:13;;;;;;;;;16.25;14.00;;;;;13.97;56.84;101578.19;5076963;27;45629;-83
2023/05/25 04:34:41;;;;;;;;;13.00;10.50;;;;;13.94;56.40;101591.56;5077189;27;45685;-83
2023/05/25 04:40:28;;;;;;;;;11.00;10.50;;;;;13.90;56.82;101589.25;5075944;28;45819;-82
2023/05/25 04:42:54;;;;;;;;;12.00;9.75;;;;;13.91;56.87;101594.44;5076350;27;45673;-82
2023/05/25 04:45:20;;;;;;;;;10.00;10.00;;;;;13.88;56.99;101595.47;5074330;28;48193;-84
2023/05/25 04:47:46;;;;;;;;;11.00;8.00;;;;;13.86;57.00;101592.13;5075645;27;45778;-84
2023/05/25 04:50:11;;;;;;;;;13.00;10.25;;;;;13.88;56.92;101608.63;5075827;27;45727;-84
2023/05/25 04:52:37;;;;;;;;;11.00;9.50;;;;;13.88;57.29;101600.75;5075449;28;45446;-84
2023/05/25 04:55:02;;;;;;;;;11.00;9.50;;;;;13.87;57.17;101592.97;5090860;27;48562;-83
2023/05/25 04:57:30;;;;;;;;;16.50;13.75;;;;;13.88;57.42;101603.38;5075544;27;45619;-83
2023/05/25 04:59:56;;;;;;;;;15.00;11.50;;;;;13.88;56.97;101605.16;5075525;28;45770;-82
2023/05/25 05:02:21;;;;;;;;;11.50;10.25;;;;;13.82;57.11;101593.25;5075659;27;45647;-82
2023/05/25 05:04:47;;;;;;;;;11.00;10.00;;;;;13.87;57.20;101606.13;5075293;28;45726;-82
2023/05/25 05:10:34;;;;;;;;;13.50;10.50;;;;;13.91;56.94;101601.50;5074832;28;46003;-82
2023/05/25 05:12:59;;;;;;;;;15.25;11.25;;;;;13.91;57.47;101604.97;5075494;27;45647;-82
2023/05/25 05:15:26;;;;;;;;;14.75;11.00;;;;;13.87;57.11;101606.13;5073165;28;47883;-81
2023/05/25 05:17:53;;;;;;;;;17.00;14.75;;;;;13.86;57.30;101610.56;5075407;28;46325;-82
2023/05/25 05:20:18;;;;;;;;;14.25;11.00;;;;;13.83;56.88;101615.16;5075458;27;45608;-81
2023/05/25 05:26:09;;;;;;;;;14.75;11.25;;;;;13.80;57.34;101629.41;5075374;28;45950;-82
2023/05/25 05:28:35;;;;;;;;;13.50;10.00;;;;;13.82;57.11;101642.47;5075083;27;46138;-82
2023/05/25 05:31:00;;;;;;;;;13.25;11.75;;;;;13.80;57.28;101637.31;5075208;28;45768;-82
2023/05/25 05:33:26;;;;;;;;;16.75;15.50;;;;;13.77;57.37;101623.50;5075058;28;45615;-82
2023/05/25 05:35:51;;;;;;;;;13.00;11.25;;;;;13.81;57.38;101641.63;5074976;28;45776;-82
2023/05/25 05:38:17;;;;;;;;;11.00;10.00;;;;;13.78;57.32;101633.94;5074753;28;46023;-81
2023/05/25 05:40:43;;;;;;;;;16.00;11.25;;;;;13.78;57.41;101633.94;5089967;27;45549;-82
2023/05/25 05:43:12;;;;;;;;;13.00;10.25;;;;;13.82;57.03;101645.94;5074917;28;45810;-83
2023/05/25 05:45:38;;;;;;;;;14.50;12.25;;;;;13.83;57.21;101646.78;5074354;27;46280;-81
2023/05/25 05:48:08;;;;;;;;;17.25;12.75;;;;;13.82;57.36;101639.81;5076929;28;45759;-82
2023/05/25 05:50:37;;;;;;;;;16.25;14.25;;;;;13.81;57.33;101649.53;5073571;27;45662;-81
2023/05/25 05:56:25;;;;;;;;;14.75;14.25;;;;;13.85;57.26;101652.81;5062896;28;45697;-75
2023/05/25 05:58:52;;;;;;;;;12.00;12.00;;;;;13.87;56.84;101659.63;5074400;28;46015;-77
2023/05/25 06:01:18;;;;;;;;;17.00;11.75;;;;;13.87;56.96;101656.19;5074036;28;45788;-77
2023/05/25 06:03:44;;;;;;;;;12.25;12.25;;;;;13.91;57.05;101665.56;5074834;28;45689;-76
2023/05/25 06:06:10;;;;;;;;;9.75;9.00;;;;;13.93;56.68;101666.28;5074140;28;45757;-77
2023/05/25 06:08:36;;;;;;;;;13.50;10.50;;;;;13.96;56.94;101665.25;5074269;27;46213;-77
2023/05/25 06:11:01;;;;;;;;;14.75;11.00;;;;;13.97;56.76;101661.66;5073971;27;45514;-78
2023/05/25 06:13:27;;;;;;;;;12.25;11.75;;;;;13.98;56.70;101658.91;5074076;27;45896;-78
2023/05/25 06:15:52;;;;;;;;;13.75;12.00;;;;;14.01;56.76;101650.81;5074292;28;45480;-78
2023/05/25 06:18:17;;;;;;;;;15.75;12.00;;;;;14.03;56.49;101661.25;5074297;27;45857;-77
2023/05/25 06:20:43;;;;;;;;;14.75;12.25;;;;;14.06;56.37;101669.78;5074026;28;45552;-78
2023/05/25 06:26:31;;;;;;;;;13.00;13.00;;;;;14.08;56.21;101667.03;5074137;28;45649;-80
2023/05/25 06:28:56;;;;;;;;;16.25;11.50;;;;;14.09;55.69;101664.28;5074706;28;46087;-76
2023/05/25 06:31:21;;;;;;;;;14.25;9.00;;;;;14.11;55.86;101672.09;5074841;28;46090;-79
2023/05/25 06:33:47;;;;;;;;;16.25;12.50;;;;;14.13;55.79;101676.31;5075416;28;45458;-79
2023/05/25 06:36:13;;;;;;;;;10.75;9.00;;;;;14.17;55.40;101683.06;5075417;28;46439;-77
2023/05/25 06:42:01;;;;;;;;;11.50;11.00;;;;;14.25;55.30;101675.44;5075003;28;45635;-76
2023/05/25 06:44:26;;;;;;;;;11.00;9.00;;;;;14.27;54.96;101667.44;5072290;28;45993;-78
2023/05/25 06:46:51;;;;;;;;;10.50;9.00;;;;;14.31;54.73;101671.53;5073998;27;45641;-78
2023/05/25 06:49:17;;;;;;;;;13.50;11.75;;;;;14.33;54.78;101674.94;5073897;28;46357;-77
2023/05/25 06:51:42;;;;;;;;;13.25;11.00;;;;;14.37;54.80;101675.59;5073489;27;45736;-77
2023/05/25 06:54:08;;;;;;;;;13.00;12.50;;;;;14.38;54.59;101683.41;5074156;27;45918;-78
2023/05/25 06:56:37;;;;;;;;;11.75;9.00;;;;;14.41;54.49;101666.53;5073335;28;45453;-81
2023/05/25 06:59:02;;;;;;;;;12.25;8.50;;;;;14.43;54.55;101664.63;5074060;27;46073;-81
2023/05/25 07:01:28;;;;;;;;;11.75;9.75;;;;;14.49;53.76;101657.13;5073851;27;45653;-81
2023/05/25 07:03:54;;;;;;;;;14.75;12.00;;;;;14.53;54.35;101673.56;5074292;27;45747;-80
2023/05/25 07:06:19;;;;;;;;;11.75;11.00;;;;;14.56;54.05;101666.28;5074240;28;46335;-79
2023/05/25 07:12:08;;;;;;;;;11.00;10.75;;;;;14.63;53.58;101661.41;5072368;28;45597;-79
2023/05/25 07:14:33;;;;;;;;;11.25;9.50;;;;;14.67;53.93;101669.00;5071609;28;45590;-79
2023/05/25 07:16:59;;;;;;;;;8.75;8.50;;;;;14.71;53.32;101674.91;5072855;28;46465;-78
2023/05/25 07:19:25;;;;;;;;;8.25;7.50;;;;;14.75;53.02;101680.78;5072837;27;46130;-79
2023/05/25 07:21:50;;;;;;;;;10.25;9.00;;;;;14.79;53.06;101671.72;5073023;27;45578;-79
2023/05/25 07:24:17;;;;;;;;;9.50;9.00;;;;;14.82;53.15;101669.69;5073257;27;45577;-76
2023/05/25 07:26:43;;;;;;;;;9.75;8.75;;;;;14.87;53.00;101682.56;5073492;27;45597;-78
2023/05/25 07:29:08;;;;;;;;;9.25;8.75;;;;;14.90;52.36;101679.72;5073533;27;45901;-79
2023/05/25 07:31:35;;;;;;;;;11.75;8.50;;;;;14.93;52.40;101677.69;5073281;27;45706;-76
2023/05/25 07:34:00;;;;;;;;;8.50;7.50;;;;;14.98;51.80;101680.00;5073526;28;45534;-77
2023/05/25 07:36:26;;;;;;;;;7.75;7.00;;;;;15.00;51.84;101681.59;5073569;27;45565;-78
2023/05/25 07:42:19;;;;;;;;;9.25;7.25;;;;;15.08;50.59;101676.56;5073648;28;45465;-76
2023/05/25 07:44:44;;;;;;;;;8.50;7.25;;;;;15.11;50.82;101673.69;5072264;28;45861;-79
2023/05/25 07:47:10;;;;;;;;;5.25;4.25;;;;;15.18;50.99;101674.09;5073373;27;45682;-75
2023/05/25 07:49:35;;;;;;;;;10.00;8.25;;;;;15.21;50.57;101668.63;5073218;28;45590;-79
2023/05/25 07:52:03;;;;;;;;;11.00;9.00;;;;;15.29;50.15;101673.31;5073816;28;45615;-81
2023/05/25 07:54:28;;;;;;;;;6.00;5.25;;;;;15.32;50.02;101673.09;5074214;27;45632;-78
2023/05/25 07:56:54;;;;;;;;;3.00;3.00;;;;;15.39;49.47;101669.03;5076108;28;46534;-80
2023/05/25 07:59:19;;;;;;;;;8.25;6.00;;;;;15.42;49.51;101674.09;5076706;28;45658;-80
2023/05/25 08:01:45;;;;;;;;;8.75;7.00;;;;;15.45;49.73;101665.94;5076420;28;46020;-81
2023/05/25 08:04:10;;;;;;;;;6.75;6.50;;;;;15.49;49.36;101681.44;5076833;27;45504;-79
2023/05/25 08:06:35;;;;;;;;;8.50;6.00;;;;;15.53;48.26;101682.09;5076616;27;46350;-76
2023/05/25 08:12:22;;;;;;;;;5.75;4.00;;;;;15.65;49.13;101683.00;5076186;28;45758;-78
2023/05/25 08:14:48;;;;;;;;;5.50;5.25;;;;;15.66;48.80;101676.72;5075144;28;45979;-81
2023/05/25 08:17:14;;;;;;;;;6.00;5.75;;;;;15.71;47.97;101683.34;5077042;27;45492;-77
2023/05/25 08:19:39;;;;;;;;;6.25;6.00;;;;;15.75;48.22;101674.25;5077542;28;46540;-76
2023/05/25 08:22:04;;;;;;;;;6.00;5.50;;;;;15.82;48.19;101683.38;5076937;28;45618;-78
2023/05/25 08:24:30;;;;;;;;;6.00;5.00;;;;;15.85;47.59;101683.16;5076676;27;45571;-77
2023/05/25 08:26:55;;;;;;;;;7.25;4.75;;;;;15.90;47.53;101682.81;5076294;27;46364;-77
2023/05/25 08:29:21;;;;;;;;;4.75;4.50;;;;;15.93;47.49;101678.13;5076121;28;45415;-78
2023/05/25 08:31:48;;;;;;;;;7.00;6.00;;;;;15.99;46.45;101687.38;5075924;27;45476;-78
2023/05/25 08:34:14;;;;;;;;;4.25;4.25;;;;;16.04;46.57;101674.66;5076385;27;45825;-76
2023/05/25 08:36:40;;;;;;;;;6.75;6.00;;;;;16.05;46.42;101675.50;5091365;27;46498;-77
2023/05/25 08:42:28;;;;;;;;;6.25;6.25;;;;;16.14;46.20;101669.53;5076315;28;45814;-77
2023/05/25 08:44:54;;;;;;;;;5.00;4.00;;;;;16.16;46.30;101668.44;5077500;27;45664;-78
2023/05/25 08:47:21;;;;;;;;;6.25;5.25;;;;;16.22;47.01;101672.41;5077174;27;45759;-76
2023/05/25 08:49:48;;;;;;;;;2.00;2.00;;;;;16.28;46.19;101679.84;5076665;27;45564;-79
2023/05/25 08:58:42;;;;;;;;;4.25;4.00;;;;;16.44;45.82;101683.00;5069462;28;45782;-78
2023/05/25 09:01:08;;;;;;;;;4.00;4.00;;;;;16.48;45.79;101678.28;5073897;28;46431;-76
2023/05/25 09:03:35;;;;;;;;;6.25;4.00;;;;;16.54;45.64;101673.34;5075849;27;45664;-80
2023/05/25 09:06:01;;;;;;;;;6.25;5.25;;;;;16.59;44.84;101673.88;5075817;27;45569;-76
2023/05/25 09:08:27;;;;;;;;;6.25;4.50;;;;;16.65;44.48;101675.19;5075684;28;45866;-76
2023/05/25 09:10:55;;;;;;;;;12.00;5.75;;;;;16.69;44.54;101672.16;5075812;27;45790;-78
2023/05/25 09:13:21;;;;;;;;;6.50;5.50;;;;;16.73;44.96;101678.88;5075965;27;45629;-77
2023/05/25 09:15:47;;;;;;;;;6.00;5.50;;;;;16.79;45.04;101667.81;5076287;28;45581;-76
2023/05/25 09:18:13;;;;;;;;;8.00;4.00;;;;;16.86;43.84;101677.91;5076673;28;45498;-78
2023/05/25 09:20:38;;;;;;;;;4.00;3.75;;;;;16.88;43.36;101676.00;5076128;28;45607;-77
2023/05/25 09:23:04;;;;;;;;;6.25;6.00;;;;;16.91;43.32;101670.44;5075427;28;45670;-79
2023/05/25 09:25:31;;;;;;;;;5.00;5.00;;;;;16.94;42.77;101671.06;5075918;27;45843;-76
2023/05/25 09:27:59;;;;;;;;;6.25;5.25;;;;;16.96;41.96;101666.47;5075349;27;46703;-78
2023/05/25 09:30:31;;;;;;;;;5.00;5.00;;;;;17.00;42.15;101659.13;5075103;27;46239;-82
2023/05/25 09:33:08;;;;;;;;;4.00;3.25;;;;;17.04;42.34;101664.06;5075431;27;45825;-80
2023/05/25 09:35:34;;;;;;;;;5.00;4.25;;;;;17.10;42.62;101668.00;5075646;27;45529;-77
2023/05/25 09:37:59;;;;;;;;;5.00;3.50;;;;;17.13;42.89;101650.06;5075349;27;45560;-76
2023/05/25 09:40:25;;;;;;;;;5.25;4.00;;;;;17.21;42.42;101662.69;5074766;28;45540;-76
2023/05/25 09:42:50;;;;;;;;;4.75;4.00;;;;;17.28;42.04;101660.34;5075371;27;45743;-76
2023/05/25 09:45:16;;;;;;;;;5.25;4.50;;;;;17.30;41.75;101650.47;5075391;27;45719;-77
2023/05/25 09:47:41;;;;;;;;;7.00;3.00;;;;;17.34;40.52;101665.97;5075077;28;45626;-79
2023/05/25 09:50:07;;;;;;;;;4.25;3.25;;;;;17.36;40.78;101669.34;5074552;27;45583;-78
2023/05/25 09:52:32;;;;;;;;;6.50;5.75;;;;;17.38;40.60;101667.41;5074850;27;45607;-79
2023/05/25 09:58:23;;;;;;;;;6.25;5.25;;;;;17.46;41.28;101667.63;5071524;28;45605;-77
2023/05/25 10:00:53;;;;;;;;;7.50;6.50;;;;;17.52;41.74;101667.13;5074310;27;46114;-78
2023/05/25 10:03:20;;;;;;;;;6.00;5.00;;;;;17.55;42.23;101661.53;5074660;27;45620;-77
2023/05/25 10:05:46;;;;;;;;;5.75;5.00;;;;;17.59;41.45;101667.44;5074778;27;45699;-80
2023/05/25 10:08:12;;;;;;;;;4.00;4.00;;;;;17.68;41.60;101674.66;5074484;27;46209;-77
2023/05/25 10:10:41;;;;;;;;;4.00;3.00;;;;;17.71;40.91;101684.16;5074192;28;45624;-78
2023/05/25 10:13:08;;;;;;;;;4.50;4.00;;;;;17.79;41.71;101681.72;5073032;28;45639;-78
2023/05/25 10:15:36;;;;;;;;;5.25;5.25;;;;;17.83;41.63;101691.06;5073466;28;45913;-79
2023/05/25 10:18:02;;;;;;;;;4.00;4.00;;;;;17.87;41.36;101685.38;5074125;27;45608;-80
2023/05/25 10:20:30;;;;;;;;;4.00;4.00;;;;;17.92;42.01;101679.72;5075237;27;45951;-76
2023/05/25 10:29:39;;;;;;;;;4.25;4.25;;;;;18.08;39.56;101677.44;5074001;28;45699;-76
2023/05/25 10:32:06;;;;;;;;;4.00;4.00;;;;;18.11;40.36;101689.56;5074167;27;45862;-76
2023/05/25 10:34:31;;;;;;;;;5.00;5.00;;;;;18.14;40.65;101686.69;5074430;27;45772;-79
2023/05/25 10:36:58;;;;;;;;;4.00;4.00;;;;;18.17;40.33;101684.59;5074239;27;45603;-77
2023/05/25 10:39:24;;;;;;;;;6.25;5.50;;;;;18.22;39.69;101694.81;5072463;28;46484;-76
2023/05/25 10:41:51;;;;;;;;;5.00;4.50;;;;;18.23;39.33;101677.94;5073743;28;46320;-78
2023/05/25 10:44:18;;;;;;;;;4.00;4.00;;;;;18.27;39.34;101684.63;5073820;27;45728;-78
2023/05/25 10:46:44;;;;;;;;;4.75;4.00;;;;;18.28;39.21;101665.94;5074197;27;45701;-79
2023/05/25 10:49:11;;;;;;;;;4.00;3.00;;;;;18.32;38.59;101688.56;5073752;27;46855;-78
2023/05/25 10:51:38;;;;;;;;;3.25;3.00;;;;;18.34;38.71;101677.84;5073492;28;46319;-79
2023/05/25 10:54:03;;;;;;;;;6.75;5.00;;;;;18.34;39.01;101669.88;5073795;28;45751;-79
2023/05/25 10:56:29;;;;;;;;;2.00;1.00;;;;;18.36;39.57;101673.22;5074030;27;45516;-78
2023/05/25 10:58:55;;;;;;;;;4.50;4.00;;;;;18.43;39.79;101685.00;5073391;27;46348;-78
2023/05/25 11:01:21;;;;;;;;;4.25;4.00;;;;;18.49;39.27;101680.97;5073601;28;45819;-80
2023/05/25 11:03:55;;;;;;;;;6.75;4.25;;;;;18.53;38.94;101680.56;5073849;27;45672;-79
2023/05/25 11:06:44;;;;;;;;;4.25;4.00;;;;;18.56;39.21;101672.38;5074158;27;45639;-79
2023/05/25 11:09:32;;;;;;;;;5.00;4.00;;;;;18.63;39.10;101675.31;5073868;28;45618;-77
2023/05/25 11:11:58;;;;;;;;;5.00;4.25;;;;;18.66;39.49;101681.22;5078589;28;45548;-79
2023/05/25 11:14:30;;;;;;;;;4.50;4.00;;;;;18.72;39.39;101680.69;5075571;28;45686;-80
2023/05/25 11:17:13;;;;;;;;;4.75;4.00;;;;;18.80;38.48;101679.97;5072644;28;45612;-77
2023/05/25 11:19:46;;;;;;;;;5.00;4.00;;;;;18.83;38.06;101683.22;5076609;27;45670;-81
2023/05/25 11:22:19;;;;;;;;;6.75;4.75;;;;;18.87;37.59;101678.47;5073368;27;46098;-77
2023/05/25 11:24:49;;;;;;;;;5.25;3.00;;;;;18.86;37.99;101677.63;5092036;27;45563;-78
2023/05/25 11:27:14;;;;;;;;;5.75;5.25;;;;;18.91;37.78;101685.19;5076839;27;45667;-75
2023/05/25 11:29:40;;;;;;;;;4.50;3.75;;;;;18.95;37.84;101664.53;5074981;28;46353;-80
2023/05/25 11:32:13;;;;;;;;;4.00;4.00;;;;;18.95;38.36;101662.66;5077147;27;46021;-79
2023/05/25 11:34:40;;;;;;;;;4.50;4.25;;;;;18.97;38.43;101679.31;5077125;27;45658;-81
2023/05/25 11:37:08;;;;;;;;;6.00;4.25;;;;;18.99;37.96;101664.09;5076935;27;45615;-79
2023/05/25 11:39:34;;;;;;;;;4.75;4.00;;;;;19.04;38.18;101669.00;5076684;28;46495;-82
2023/05/25 11:42:06;;;;;;;;;6.75;4.00;;;;;19.06;37.36;101667.03;5076587;28;46269;-78
2023/05/25 11:44:33;;;;;;;;;3.75;3.00;;;;;19.10;38.27;101661.31;5077063;27;45643;-79
2023/05/25 11:47:07;;;;;;;;;5.50;5.00;;;;;19.13;38.18;101654.88;5076767;27;45517;-80
2023/05/25 11:49:34;;;;;;;;;2.00;1.00;;;;;19.19;37.25;101663.13;5076528;27;45627;-77
2023/05/25 11:52:07;;;;;;;;;5.25;5.00;;;;;19.20;38.02;101638.25;5076431;28;46357;-77
2023/05/25 11:54:33;;;;;;;;;5.25;4.00;;;;;19.28;38.18;101643.69;5076625;27;45654;-76
2023/05/25 11:57:00;;;;;;;;;5.00;5.00;;;;;19.33;37.84;101645.09;5076691;28;45567;-76
2023/05/25 11:59:26;;;;;;;;;5.00;4.00;;;;;19.36;37.75;101650.97;5075933;28;46587;-77
2023/05/25 12:02:10;;;;;;;;;7.00;4.25;;;;;19.41;38.12;101646.06;5076144;27;46430;-78
2023/05/25 12:04:35;;;;;;;;;4.00;4.00;;;;;19.46;38.31;101651.00;5076445;27;45766;-77
2023/05/25 12:07:06;;;;;;;;;5.25;4.75;;;;;19.49;37.76;101640.91;5076506;28;45572;-77
2023/05/25 12:09:31;;;;;;;;;3.75;3.75;;;;;19.54;38.26;101649.31;5076242;27;45632;-77
2023/05/25 12:11:58;;;;;;;;;6.00;5.50;;;;;19.58;37.97;101647.22;5076089;28;45645;-79
2023/05/25 12:14:23;;;;;;;;;5.00;4.00;;;;;19.62;38.05;101641.47;5076489;28;45536;-77
2023/05/25 12:16:50;;;;;;;;;4.00;4.00;;;;;19.68;37.29;101640.06;5076509;28;45742;-78
2023/05/25 12:19:16;;;;;;;;;5.25;5.00;;;;;19.72;37.68;101651.25;5076264;27;46600;-76
2023/05/25 12:21:42;;;;;;;;;5.00;5.00;;;;;19.73;37.35;101643.13;5076013;27;45975;-79
2023/05/25 12:24:11;;;;;;;;;5.00;4.00;;;;;19.74;37.62;101641.31;5076251;27;45627;-75
2023/05/25 12:26:46;;;;;;;;;6.00;5.00;;;;;19.76;37.49;101640.16;5076351;27;45595;-77
2023/05/25 12:29:12;;;;;;;;;6.00;5.00;;;;;19.80;37.90;101646.91;5076177;27;45660;-79
2023/05/25 12:31:38;;;;;;;;;7.00;5.00;;;;;19.85;37.85;101644.66;5075474;27;45697;-77
2023/05/25 12:34:06;;;;;;;;;4.00;4.00;;;;;19.90;37.39;101630.91;5073642;28;45795;-80
2023/05/25 12:36:55;;;;;;;;;5.75;4.50;;;;;19.95;37.66;101636.63;5075526;28;45575;-78
2023/05/25 12:39:29;;;;;;;;;6.75;5.00;;;;;20.00;37.21;101637.03;5073206;27;47896;-78
2023/05/25 12:42:01;;;;;;;;;5.00;4.75;;;;;20.06;37.12;101641.78;5074126;28;45748;-78
2023/05/25 12:44:30;;;;;;;;;3.50;3.00;;;;;20.09;37.66;101628.19;5075538;27;45660;-77
2023/05/25 12:47:09;;;;;;;;;4.00;4.00;;;;;20.12;37.46;101638.56;5075344;27;45607;-78